Accueil
METAR-TAF:

METAR-TAF

Aéroports :

Aérodrome de Granges

Granges, Suisse

latitude: 47-10-53N, longitude: 007-24-59E, altitude: 430 m

Observation

Le bulletin a été fait il y a 44 minutes, à 14:20 UTC
Vent 13 kt de ouest/sud-ouest
Température 14°C
Humidité 72%
Pression 1017 hPa
Visibilité 10 km ou plus
Quelques nuages à une hauteur de 2500 ft
Nuages épars à une hauteur de 3000 ft

METAR: LSZG 281420Z 25013KT 9999 FEW025 SCT030 14/09 Q1017 NOSIG

Heure: 16:04 (15:04 UTC)

Prévision

Le bulletin a été fait il y a 39 minutes, à 14:25 UTC
Prévision valable du 28 à 15 UTC au 28 à 24 UTC
Vent 8 kt de ouest/sud-ouest
Visibilité 10 km ou plus
Quelques nuages à une hauteur de 2500 ft
Temporairement
du 28 à 15 UTC au 28 à 19 UTC
Vent 15 kt de ouest/sud-ouest avec des rafales jusqu'à 25 kt
Temporairement
du 28 à 18 UTC au 28 à 24 UTC
averses de pluie

TAF: LSZG 281425Z 2815/2824 25008KT 9999 FEW025 TEMPO 2815/2819 25015G25KT TEMPO 2818/2824 SHRA

Observations et prévisions météorologiques de plus de 4000 aéroports (messages METAR et TAF).

Les stations disponibles sont représentées par des disques jaunes et rouges sur la carte.

Passer la souris dessus pour voir le nom de la station.

Cliquer dessus pour voir les observations et prévisions météorologiques.

Pour changer de carte: cliquez sur les boutons verts avec une croix noire pour zoomer, sur le bouton vert avec un tiret pour effectuer un zoom arrière, ou sur les flèches vertes pour les cartes adjacentes.


METAR-TAF: